sensor_id;sensor_type;location;lat;lon;timestamp;pressure;altitude;pressure_sealevel;temperature;humidity
53635;BME280;39542;-34.932;138.594;2022-11-12T00:00:04;99945.95;;;22.15;61.29
53635;BME280;39542;-34.932;138.594;2022-11-12T00:00:40;99948.64;;;22.17;61.25
53635;BME280;39542;-34.932;138.594;2022-11-12T00:01:14;99951.90;;;22.20;61.24
53635;BME280;39542;-34.932;138.594;2022-11-12T00:01:48;99956.14;;;22.21;61.20
53635;BME280;39542;-34.932;138.594;2022-11-12T00:02:23;99962.95;;;22.24;61.17
53635;BME280;39542;-34.932;138.594;2022-11-12T00:02:57;99967.21;;;22.26;61.14
53635;BME280;39542;-34.932;138.594;2022-11-12T00:03:33;99971.90;;;22.24;61.20
53635;BME280;39542;-34.932;138.594;2022-11-12T00:04:07;99980.80;;;22.27;61.15
53635;BME280;39542;-34.932;138.594;2022-11-12T00:04:41;99988.34;;;22.32;61.06
53635;BME280;39542;-34.932;138.594;2022-11-12T00:05:16;99996.01;;;22.34;61.04
53635;BME280;39542;-34.932;138.594;2022-11-12T00:05:50;100003.52;;;22.31;61.13
53635;BME280;39542;-34.932;138.594;2022-11-12T00:06:25;100009.37;;;22.33;61.10
53635;BME280;39542;-34.932;138.594;2022-11-12T00:07:00;100019.45;;;22.29;61.21
53635;BME280;39542;-34.932;138.594;2022-11-12T00:07:34;100022.29;;;22.26;61.32
53635;BME280;39542;-34.932;138.594;2022-11-12T00:08:08;100026.92;;;22.31;61.26
53635;BME280;39542;-34.932;138.594;2022-11-12T00:08:43;100027.96;;;22.29;61.29
53635;BME280;39542;-34.932;138.594;2022-11-12T00:09:17;100031.71;;;22.32;61.20
53635;BME280;39542;-34.932;138.594;2022-11-12T00:09:51;100030.72;;;22.29;61.26
53635;BME280;39542;-34.932;138.594;2022-11-12T00:10:27;100032.05;;;22.31;61.30
53635;BME280;39542;-34.932;138.594;2022-11-12T00:11:01;100028.11;;;22.36;61.22
53635;BME280;39542;-34.932;138.594;2022-11-12T00:11:35;100026.31;;;22.35;61.32
53635;BME280;39542;-34.932;138.594;2022-11-12T00:12:10;100022.83;;;22.35;61.26
53635;BME280;39542;-34.932;138.594;2022-11-12T00:12:45;100018.27;;;22.32;61.29
53635;BME280;39542;-34.932;138.594;2022-11-12T00:13:19;100014.84;;;22.27;61.42
53635;BME280;39542;-34.932;138.594;2022-11-12T00:13:54;100007.78;;;22.28;61.36
53635;BME280;39542;-34.932;138.594;2022-11-12T00:14:28;100004.02;;;22.25;61.44
53635;BME280;39542;-34.932;138.594;2022-11-12T00:15:03;100000.72;;;22.28;61.24
53635;BME280;39542;-34.932;138.594;2022-11-12T00:15:37;99995.44;;;22.29;61.20
53635;BME280;39542;-34.932;138.594;2022-11-12T00:16:12;99992.34;;;22.21;61.49
53635;BME280;39542;-34.932;138.594;2022-11-12T00:16:46;99993.81;;;22.15;61.61
53635;BME280;39542;-34.932;138.594;2022-11-12T00:17:21;99993.66;;;22.20;61.51
53635;BME280;39542;-34.932;138.594;2022-11-12T00:17:58;99997.30;;;22.17;61.60
53635;BME280;39542;-34.932;138.594;2022-11-12T00:18:34;99998.92;;;22.25;61.43
53635;BME280;39542;-34.932;138.594;2022-11-12T00:19:08;100006.36;;;22.31;61.36
53635;BME280;39542;-34.932;138.594;2022-11-12T00:19:42;100011.29;;;22.30;61.41
53635;BME280;39542;-34.932;138.594;2022-11-12T00:20:17;100018.69;;;22.33;61.36
53635;BME280;39542;-34.932;138.594;2022-11-12T00:20:51;100029.73;;;22.30;61.53
53635;BME280;39542;-34.932;138.594;2022-11-12T00:21:26;100036.08;;;22.30;61.66
53635;BME280;39542;-34.932;138.594;2022-11-12T00:22:00;100044.97;;;22.37;61.63
53635;BME280;39542;-34.932;138.594;2022-11-12T00:22:35;100052.35;;;22.30;61.72
53635;BME280;39542;-34.932;138.594;2022-11-12T00:23:09;100058.10;;;22.28;61.68
53635;BME280;39542;-34.932;138.594;2022-11-12T00:23:45;100063.83;;;22.27;61.83
53635;BME280;39542;-34.932;138.594;2022-11-12T00:24:19;100070.32;;;22.34;61.37
53635;BME280;39542;-34.932;138.594;2022-11-12T00:24:54;100074.93;;;22.34;61.49
53635;BME280;39542;-34.932;138.594;2022-11-12T00:25:29;100076.30;;;22.35;61.66
53635;BME280;39542;-34.932;138.594;2022-11-12T00:26:03;100080.22;;;22.34;61.72
53635;BME280;39542;-34.932;138.594;2022-11-12T00:26:38;100080.80;;;22.30;61.82
53635;BME280;39542;-34.932;138.594;2022-11-12T00:27:12;100081.44;;;22.27;61.90
53635;BME280;39542;-34.932;138.594;2022-11-12T00:27:49;100077.58;;;22.29;61.88
53635;BME280;39542;-34.932;138.594;2022-11-12T00:28:23;100077.42;;;22.30;61.92
53635;BME280;39542;-34.932;138.594;2022-11-12T00:28:59;100079.14;;;22.27;62.03
53635;BME280;39542;-34.932;138.594;2022-11-12T00:29:34;100072.84;;;22.27;61.93
53635;BME280;39542;-34.932;138.594;2022-11-12T00:30:09;100071.10;;;22.27;61.98
53635;BME280;39542;-34.932;138.594;2022-11-12T00:30:45;100068.06;;;22.26;62.04
53635;BME280;39542;-34.932;138.594;2022-11-12T00:31:19;100068.57;;;22.25;62.10
53635;BME280;39542;-34.932;138.594;2022-11-12T00:31:55;100069.33;;;22.24;62.19
53635;BME280;39542;-34.932;138.594;2022-11-12T00:32:29;100069.95;;;22.24;62.19
53635;BME280;39542;-34.932;138.594;2022-11-12T00:33:06;100073.31;;;22.24;62.19
53635;BME280;39542;-34.932;138.594;2022-11-12T00:33:43;100075.55;;;22.24;62.26
53635;BME280;39542;-34.932;138.594;2022-11-12T00:34:18;100081.38;;;22.21;62.30
53635;BME280;39542;-34.932;138.594;2022-11-12T00:34:53;100086.05;;;22.29;62.12
53635;BME280;39542;-34.932;138.594;2022-11-12T00:35:27;100088.31;;;22.39;61.85
53635;BME280;39542;-34.932;138.594;2022-11-12T00:36:04;100093.91;;;22.35;62.02
53635;BME280;39542;-34.932;138.594;2022-11-12T00:36:40;100095.01;;;22.33;62.04
53635;BME280;39542;-34.932;138.594;2022-11-12T00:37:14;100095.70;;;22.29;62.15
53635;BME280;39542;-34.932;138.594;2022-11-12T00:37:55;100096.19;;;22.24;62.27
53635;BME280;39542;-34.932;138.594;2022-11-12T00:38:31;100093.29;;;22.22;62.34
53635;BME280;39542;-34.932;138.594;2022-11-12T00:39:09;100092.28;;;22.27;62.18
53635;BME280;39542;-34.932;138.594;2022-11-12T00:39:44;100087.13;;;22.25;62.30
53635;BME280;39542;-34.932;138.594;2022-11-12T00:40:19;100082.61;;;22.21;62.40
53635;BME280;39542;-34.932;138.594;2022-11-12T00:40:58;100080.12;;;22.28;62.23
53635;BME280;39542;-34.932;138.594;2022-11-12T00:41:32;100074.92;;;22.28;62.26
53635;BME280;39542;-34.932;138.594;2022-11-12T00:42:08;100071.76;;;22.29;62.26
53635;BME280;39542;-34.932;138.594;2022-11-12T00:42:42;100067.66;;;22.29;62.21
53635;BME280;39542;-34.932;138.594;2022-11-12T00:43:19;100063.57;;;22.28;62.32
53635;BME280;39542;-34.932;138.594;2022-11-12T00:43:53;100059.18;;;22.26;62.35
53635;BME280;39542;-34.932;138.594;2022-11-12T00:44:28;100058.82;;;22.27;62.31
53635;BME280;39542;-34.932;138.594;2022-11-12T00:45:03;100057.74;;;22.30;62.27
53635;BME280;39542;-34.932;138.594;2022-11-12T00:45:37;100056.11;;;22.35;62.19
53635;BME280;39542;-34.932;138.594;2022-11-12T00:46:14;100055.70;;;22.37;62.21
53635;BME280;39542;-34.932;138.594;2022-11-12T00:46:50;100052.59;;;22.38;62.09
53635;BME280;39542;-34.932;138.594;2022-11-12T00:47:25;100046.84;;;22.38;62.10
53635;BME280;39542;-34.932;138.594;2022-11-12T00:48:01;100042.55;;;22.36;62.16
53635;BME280;39542;-34.932;138.594;2022-11-12T00:48:35;100036.85;;;22.35;62.21
53635;BME280;39542;-34.932;138.594;2022-11-12T00:49:11;100035.09;;;22.31;62.28
53635;BME280;39542;-34.932;138.594;2022-11-12T00:49:46;100032.69;;;22.36;62.16
53635;BME280;39542;-34.932;138.594;2022-11-12T00:50:20;100031.13;;;22.33;62.22
53635;BME280;39542;-34.932;138.594;2022-11-12T00:51:01;100031.26;;;22.33;62.22
53635;BME280;39542;-34.932;138.594;2022-11-12T00:51:37;100030.12;;;22.31;62.29
53635;BME280;39542;-34.932;138.594;2022-11-12T00:52:11;100030.16;;;22.26;62.43
53635;BME280;39542;-34.932;138.594;2022-11-12T00:52:45;100032.87;;;22.31;62.32
53635;BME280;39542;-34.932;138.594;2022-11-12T00:53:19;100034.11;;;22.30;62.33
53635;BME280;39542;-34.932;138.594;2022-11-12T00:53:53;100037.28;;;22.25;62.44
53635;BME280;39542;-34.932;138.594;2022-11-12T00:54:28;100039.34;;;22.14;62.65
53635;BME280;39542;-34.932;138.594;2022-11-12T00:55:04;100042.35;;;22.06;62.88
53635;BME280;39542;-34.932;138.594;2022-11-12T00:55:38;100047.94;;;22.11;62.75
53635;BME280;39542;-34.932;138.594;2022-11-12T00:56:13;100054.06;;;22.17;62.65
53635;BME280;39542;-34.932;138.594;2022-11-12T00:56:48;100054.20;;;22.13;62.73
53635;BME280;39542;-34.932;138.594;2022-11-12T00:57:22;100055.09;;;22.12;62.77
53635;BME280;39542;-34.932;138.594;2022-11-12T00:58:01;100055.69;;;22.11;62.80
53635;BME280;39542;-34.932;138.594;2022-11-12T00:58:36;100054.27;;;22.18;62.69
53635;BME280;39542;-34.932;138.594;2022-11-12T00:59:13;100051.76;;;22.24;62.49
53635;BME280;39542;-34.932;138.594;2022-11-12T00:59:48;100045.26;;;22.25;62.48
53635;BME280;39542;-34.932;138.594;2022-11-12T01:00:23;100042.54;;;22.28;62.45
53635;BME280;39542;-34.932;138.594;2022-11-12T01:01:02;100036.91;;;22.22;62.63
53635;BME280;39542;-34.932;138.594;2022-11-12T01:01:38;100026.64;;;22.24;62.51
53635;BME280;39542;-34.932;138.594;2022-11-12T01:02:12;100022.36;;;22.26;62.52
53635;BME280;39542;-34.932;138.594;2022-11-12T01:02:47;100011.37;;;22.27;62.47
53635;BME280;39542;-34.932;138.594;2022-11-12T01:03:21;100000.99;;;22.29;62.40
53635;BME280;39542;-34.932;138.594;2022-11-12T01:03:58;99993.19;;;22.18;62.65
53635;BME280;39542;-34.932;138.594;2022-11-12T01:04:32;99982.52;;;22.20;62.62
53635;BME280;39542;-34.932;138.594;2022-11-12T01:05:08;99973.20;;;22.22;62.61
53635;BME280;39542;-34.932;138.594;2022-11-12T01:05:43;99964.07;;;22.11;62.90
53635;BME280;39542;-34.932;138.594;2022-11-12T01:06:20;99958.17;;;22.10;62.95
53635;BME280;39542;-34.932;138.594;2022-11-12T01:06:54;99951.59;;;22.12;62.85
53635;BME280;39542;-34.932;138.594;2022-11-12T01:07:28;99945.47;;;22.20;62.71
53635;BME280;39542;-34.932;138.594;2022-11-12T01:08:03;99940.86;;;22.19;62.76
53635;BME280;39542;-34.932;138.594;2022-11-12T01:08:39;99932.64;;;22.15;62.83
53635;BME280;39542;-34.932;138.594;2022-11-12T01:09:14;99927.94;;;22.09;63.01
53635;BME280;39542;-34.932;138.594;2022-11-12T01:09:48;99924.47;;;22.17;62.80
53635;BME280;39542;-34.932;138.594;2022-11-12T01:10:24;99919.50;;;22.23;62.79
53635;BME280;39542;-34.932;138.594;2022-11-12T01:11:06;99919.03;;;22.15;62.99
53635;BME280;39542;-34.932;138.594;2022-11-12T01:11:42;99920.39;;;22.18;62.96
53635;BME280;39542;-34.932;138.594;2022-11-12T01:12:16;99921.59;;;22.20;63.19
53635;BME280;39542;-34.932;138.594;2022-11-12T01:12:50;99927.46;;;22.27;62.92
53635;BME280;39542;-34.932;138.594;2022-11-12T01:13:25;99929.84;;;22.18;63.01
53635;BME280;39542;-34.932;138.594;2022-11-12T01:14:00;99936.23;;;22.16;63.22
53635;BME280;39542;-34.932;138.594;2022-11-12T01:14:36;99940.60;;;22.12;63.45
53635;BME280;39542;-34.932;138.594;2022-11-12T01:15:12;99944.73;;;22.12;63.39
53635;BME280;39542;-34.932;138.594;2022-11-12T01:15:46;99944.99;;;22.08;63.52
53635;BME280;39542;-34.932;138.594;2022-11-12T01:16:22;99945.45;;;22.13;63.48
53635;BME280;39542;-34.932;138.594;2022-11-12T01:16:57;99948.57;;;22.07;63.61
53635;BME280;39542;-34.932;138.594;2022-11-12T01:17:32;99948.56;;;22.15;63.48
53635;BME280;39542;-34.932;138.594;2022-11-12T01:18:07;99949.72;;;22.12;63.60
53635;BME280;39542;-34.932;138.594;2022-11-12T01:18:42;99948.71;;;22.08;63.81
53635;BME280;39542;-34.932;138.594;2022-11-12T01:19:17;99953.01;;;22.14;63.82
53635;BME280;39542;-34.932;138.594;2022-11-12T01:19:51;99955.69;;;22.15;63.88
53635;BME280;39542;-34.932;138.594;2022-11-12T01:20:26;99960.13;;;22.17;63.80
53635;BME280;39542;-34.932;138.594;2022-11-12T01:21:01;99964.73;;;22.13;64.01
53635;BME280;39542;-34.932;138.594;2022-11-12T01:21:39;99969.43;;;22.16;63.94
53635;BME280;39542;-34.932;138.594;2022-11-12T01:22:15;99975.32;;;22.11;64.15
53635;BME280;39542;-34.932;138.594;2022-11-12T01:22:49;99979.24;;;22.11;64.04
53635;BME280;39542;-34.932;138.594;2022-11-12T01:23:25;99981.31;;;22.05;64.21
53635;BME280;39542;-34.932;138.594;2022-11-12T01:24:00;99982.27;;;22.03;64.43
53635;BME280;39542;-34.932;138.594;2022-11-12T01:24:34;99982.21;;;22.00;64.71
53635;BME280;39542;-34.932;138.594;2022-11-12T01:25:09;99981.79;;;22.00;64.65
53635;BME280;39542;-34.932;138.594;2022-11-12T01:25:44;99983.77;;;22.01;64.60
53635;BME280;39542;-34.932;138.594;2022-11-12T01:26:21;99984.86;;;22.05;64.44
53635;BME280;39542;-34.932;138.594;2022-11-12T01:26:55;99982.19;;;22.04;64.53
53635;BME280;39542;-34.932;138.594;2022-11-12T01:27:34;99983.71;;;21.98;64.75
53635;BME280;39542;-34.932;138.594;2022-11-12T01:28:08;99982.32;;;21.91;64.99
53635;BME280;39542;-34.932;138.594;2022-11-12T01:28:43;99985.33;;;22.00;64.77
53635;BME280;39542;-34.932;138.594;2022-11-12T01:29:17;99986.26;;;22.02;64.74
53635;BME280;39542;-34.932;138.594;2022-11-12T01:29:52;99990.02;;;21.96;64.88
53635;BME280;39542;-34.932;138.594;2022-11-12T01:30:27;99993.79;;;22.00;64.89
53635;BME280;39542;-34.932;138.594;2022-11-12T01:31:12;99996.04;;;22.00;64.82
53635;BME280;39542;-34.932;138.594;2022-11-12T01:31:46;99993.56;;;21.97;64.98
53635;BME280;39542;-34.932;138.594;2022-11-12T01:32:21;99987.11;;;21.96;65.11
53635;BME280;39542;-34.932;138.594;2022-11-12T01:32:56;99982.18;;;22.07;64.84
53635;BME280;39542;-34.932;138.594;2022-11-12T01:33:30;99975.29;;;22.10;64.91
53635;BME280;39542;-34.932;138.594;2022-11-12T01:34:07;99962.43;;;22.13;64.73
53635;BME280;39542;-34.932;138.594;2022-11-12T01:34:42;99943.03;;;22.17;64.75
53635;BME280;39542;-34.932;138.594;2022-11-12T01:35:16;99920.07;;;22.19;64.46
53635;BME280;39542;-34.932;138.594;2022-11-12T01:35:51;99901.91;;;22.24;64.38
53635;BME280;39542;-34.932;138.594;2022-11-12T01:36:27;99879.78;;;22.27;64.36
53635;BME280;39542;-34.932;138.594;2022-11-12T01:37:02;99856.93;;;22.29;64.24
53635;BME280;39542;-34.932;138.594;2022-11-12T01:37:36;99840.06;;;22.29;64.23
53635;BME280;39542;-34.932;138.594;2022-11-12T01:38:11;99826.65;;;22.33;64.26
53635;BME280;39542;-34.932;138.594;2022-11-12T01:38:46;99817.74;;;22.31;64.08
53635;BME280;39542;-34.932;138.594;2022-11-12T01:39:21;99810.93;;;22.25;64.38
53635;BME280;39542;-34.932;138.594;2022-11-12T01:39:56;99799.37;;;22.26;64.24
53635;BME280;39542;-34.932;138.594;2022-11-12T01:40:31;99796.14;;;22.30;64.31
53635;BME280;39542;-34.932;138.594;2022-11-12T01:41:07;99790.61;;;22.29;64.21
53635;BME280;39542;-34.932;138.594;2022-11-12T01:41:42;99787.19;;;22.31;64.24
53635;BME280;39542;-34.932;138.594;2022-11-12T01:42:16;99786.46;;;22.32;64.22
53635;BME280;39542;-34.932;138.594;2022-11-12T01:42:53;99786.23;;;22.34;64.19
53635;BME280;39542;-34.932;138.594;2022-11-12T01:43:27;99789.38;;;22.32;64.30
53635;BME280;39542;-34.932;138.594;2022-11-12T01:44:14;99785.23;;;22.31;64.24
53635;BME280;39542;-34.932;138.594;2022-11-12T01:44:50;99790.32;;;22.37;63.89
53635;BME280;39542;-34.932;138.594;2022-11-12T01:45:25;99785.98;;;22.37;63.87
53635;BME280;39542;-34.932;138.594;2022-11-12T01:46:02;99787.31;;;22.35;64.11
53635;BME280;39542;-34.932;138.594;2022-11-12T01:46:45;99784.03;;;22.31;64.22
53635;BME280;39542;-34.932;138.594;2022-11-12T01:47:22;99787.81;;;22.35;63.79
53635;BME280;39542;-34.932;138.594;2022-11-12T01:47:58;99788.47;;;22.37;63.84
53635;BME280;39542;-34.932;138.594;2022-11-12T01:48:35;99788.71;;;22.36;63.95
53635;BME280;39542;-34.932;138.594;2022-11-12T01:49:14;99795.99;;;22.33;63.85
53635;BME280;39542;-34.932;138.594;2022-11-12T01:49:55;99803.47;;;22.25;64.06
53635;BME280;39542;-34.932;138.594;2022-11-12T01:50:32;99802.55;;;22.29;63.66
53635;BME280;39542;-34.932;138.594;2022-11-12T01:51:08;99799.84;;;22.26;63.76
53635;BME280;39542;-34.932;138.594;2022-11-12T01:51:47;99798.51;;;22.20;63.80
53635;BME280;39542;-34.932;138.594;2022-11-12T01:52:26;99801.93;;;22.21;63.69
53635;BME280;39542;-34.932;138.594;2022-11-12T01:53:07;99785.90;;;22.22;63.64
53635;BME280;39542;-34.932;138.594;2022-11-12T01:53:45;99773.21;;;22.19;63.67
53635;BME280;39542;-34.932;138.594;2022-11-12T01:54:21;99761.51;;;22.18;63.50
53635;BME280;39542;-34.932;138.594;2022-11-12T01:55:00;99755.32;;;22.19;63.37
53635;BME280;39542;-34.932;138.594;2022-11-12T01:55:37;99751.75;;;22.20;63.27
53635;BME280;39542;-34.932;138.594;2022-11-12T01:56:13;99741.04;;;22.24;63.12
53635;BME280;39542;-34.932;138.594;2022-11-12T01:56:49;99731.70;;;22.27;62.91
53635;BME280;39542;-34.932;138.594;2022-11-12T01:57:26;99722.38;;;22.32;62.80
53635;BME280;39542;-34.932;138.594;2022-11-12T01:58:06;99712.96;;;22.35;62.85
53635;BME280;39542;-34.932;138.594;2022-11-12T01:58:41;99703.31;;;22.33;62.89
53635;BME280;39542;-34.932;138.594;2022-11-12T01:59:20;99694.90;;;22.30;62.80
53635;BME280;39542;-34.932;138.594;2022-11-12T02:00:02;99696.36;;;22.31;62.94
53635;BME280;39542;-34.932;138.594;2022-11-12T02:00:37;99695.90;;;22.33;62.81
53635;BME280;39542;-34.932;138.594;2022-11-12T02:01:13;99694.24;;;22.36;62.96
53635;BME280;39542;-34.932;138.594;2022-11-12T02:01:48;99703.41;;;22.33;63.14
53635;BME280;39542;-34.932;138.594;2022-11-12T02:02:22;99703.52;;;22.33;63.12
53635;BME280;39542;-34.932;138.594;2022-11-12T02:03:01;99706.48;;;22.33;63.09
53635;BME280;39542;-34.932;138.594;2022-11-12T02:03:36;99699.08;;;22.32;63.05
53635;BME280;39542;-34.932;138.594;2022-11-12T02:04:10;99708.07;;;22.33;62.98
53635;BME280;39542;-34.932;138.594;2022-11-12T02:04:45;99709.18;;;22.33;62.94
53635;BME280;39542;-34.932;138.594;2022-11-12T02:05:21;99713.39;;;22.32;63.15
53635;BME280;39542;-34.932;138.594;2022-11-12T02:06:00;99711.95;;;22.32;63.15
53635;BME280;39542;-34.932;138.594;2022-11-12T02:06:38;99709.58;;;22.34;62.87
53635;BME280;39542;-34.932;138.594;2022-11-12T02:07:13;99709.84;;;22.33;63.07
53635;BME280;39542;-34.932;138.594;2022-11-12T02:07:48;99700.93;;;22.36;62.94
53635;BME280;39542;-34.932;138.594;2022-11-12T02:08:25;99693.91;;;22.39;62.69
53635;BME280;39542;-34.932;138.594;2022-11-12T02:09:01;99688.01;;;22.38;62.61
53635;BME280;39542;-34.932;138.594;2022-11-12T02:09:36;99679.71;;;22.38;62.80
53635;BME280;39542;-34.932;138.594;2022-11-12T02:10:11;99675.92;;;22.36;63.00
53635;BME280;39542;-34.932;138.594;2022-11-12T02:10:46;99674.92;;;22.36;63.08
53635;BME280;39542;-34.932;138.594;2022-11-12T02:11:21;99677.08;;;22.37;62.91
53635;BME280;39542;-34.932;138.594;2022-11-12T02:11:56;99668.95;;;22.38;62.88
53635;BME280;39542;-34.932;138.594;2022-11-12T02:12:31;99669.46;;;22.37;63.00
53635;BME280;39542;-34.932;138.594;2022-11-12T02:13:06;99660.55;;;22.34;63.12
53635;BME280;39542;-34.932;138.594;2022-11-12T02:13:42;99648.26;;;22.34;62.90
53635;BME280;39542;-34.932;138.594;2022-11-12T02:14:17;99643.83;;;22.35;63.11
53635;BME280;39542;-34.932;138.594;2022-11-12T02:14:51;99637.83;;;22.36;63.04
53635;BME280;39542;-34.932;138.594;2022-11-12T02:15:26;99637.19;;;22.36;62.97
53635;BME280;39542;-34.932;138.594;2022-11-12T02:16:01;99634.57;;;22.34;62.96
53635;BME280;39542;-34.932;138.594;2022-11-12T02:16:39;99632.63;;;22.33;62.94
53635;BME280;39542;-34.932;138.594;2022-11-12T02:17:14;99636.15;;;22.31;63.11
53635;BME280;39542;-34.932;138.594;2022-11-12T02:17:49;99636.32;;;22.32;62.97
53635;BME280;39542;-34.932;138.594;2022-11-12T02:18:23;99640.20;;;22.35;62.92
53635;BME280;39542;-34.932;138.594;2022-11-12T02:18:57;99636.69;;;22.34;62.87
53635;BME280;39542;-34.932;138.594;2022-11-12T02:19:32;99630.70;;;22.33;63.04
53635;BME280;39542;-34.932;138.594;2022-11-12T02:20:11;99633.90;;;22.30;63.06
53635;BME280;39542;-34.932;138.594;2022-11-12T02:20:55;99639.27;;;22.30;62.81
53635;BME280;39542;-34.932;138.594;2022-11-12T02:21:31;99635.10;;;22.33;62.90
53635;BME280;39542;-34.932;138.594;2022-11-12T02:22:06;99630.17;;;22.32;62.90
53635;BME280;39542;-34.932;138.594;2022-11-12T02:22:41;99630.18;;;22.35;62.80
53635;BME280;39542;-34.932;138.594;2022-11-12T02:23:15;99628.77;;;22.35;62.87
53635;BME280;39542;-34.932;138.594;2022-11-12T02:23:59;99631.16;;;22.34;62.89
53635;BME280;39542;-34.932;138.594;2022-11-12T02:24:35;99640.13;;;22.34;62.94
53635;BME280;39542;-34.932;138.594;2022-11-12T02:25:16;99643.37;;;22.34;62.95
53635;BME280;39542;-34.932;138.594;2022-11-12T02:25:51;99659.15;;;22.34;62.84
53635;BME280;39542;-34.932;138.594;2022-11-12T02:26:27;99676.03;;;22.33;63.00
53635;BME280;39542;-34.932;138.594;2022-11-12T02:27:05;99680.13;;;22.33;62.98
53635;BME280;39542;-34.932;138.594;2022-11-12T02:27:40;99689.78;;;22.33;62.96
53635;BME280;39542;-34.932;138.594;2022-11-12T02:28:16;99693.45;;;22.34;62.78
53635;BME280;39542;-34.932;138.594;2022-11-12T02:28:50;99696.17;;;22.39;62.83
53635;BME280;39542;-34.932;138.594;2022-11-12T02:29:24;99694.63;;;22.38;62.75
53635;BME280;39542;-34.932;138.594;2022-11-12T02:29:59;99690.19;;;22.36;62.90
53635;BME280;39542;-34.932;138.594;2022-11-12T02:30:36;99688.14;;;22.33;63.19
53635;BME280;39542;-34.932;138.594;2022-11-12T02:31:11;99690.32;;;22.30;63.35
53635;BME280;39542;-34.932;138.594;2022-11-12T02:31:45;99683.41;;;22.32;63.33
53635;BME280;39542;-34.932;138.594;2022-11-12T02:32:19;99683.31;;;22.33;63.37
53635;BME280;39542;-34.932;138.594;2022-11-12T02:32:54;99684.87;;;22.32;63.64
53635;BME280;39542;-34.932;138.594;2022-11-12T02:33:28;99684.90;;;22.35;63.38
53635;BME280;39542;-34.932;138.594;2022-11-12T02:34:04;99684.93;;;22.35;63.49
53635;BME280;39542;-34.932;138.594;2022-11-12T02:34:38;99691.38;;;22.31;63.49
53635;BME280;39542;-34.932;138.594;2022-11-12T02:35:13;99690.73;;;22.35;63.42
53635;BME280;39542;-34.932;138.594;2022-11-12T02:35:47;99690.23;;;22.32;63.31
53635;BME280;39542;-34.932;138.594;2022-11-12T02:36:21;99686.27;;;22.33;63.49
53635;BME280;39542;-34.932;138.594;2022-11-12T02:36:56;99679.43;;;22.31;63.42
53635;BME280;39542;-34.932;138.594;2022-11-12T02:37:31;99672.93;;;22.30;63.50
53635;BME280;39542;-34.932;138.594;2022-11-12T02:38:07;99674.08;;;22.31;63.39
53635;BME280;39542;-34.932;138.594;2022-11-12T02:38:41;99671.89;;;22.33;63.53
53635;BME280;39542;-34.932;138.594;2022-11-12T02:39:16;99659.26;;;22.34;63.45
53635;BME280;39542;-34.932;138.594;2022-11-12T02:39:50;99659.14;;;22.34;63.73
53635;BME280;39542;-34.932;138.594;2022-11-12T02:40:25;99649.87;;;22.30;63.82
53635;BME280;39542;-34.932;138.594;2022-11-12T02:41:00;99639.44;;;22.27;63.89
53635;BME280;39542;-34.932;138.594;2022-11-12T02:41:34;99628.05;;;22.26;63.91
53635;BME280;39542;-34.932;138.594;2022-11-12T02:42:09;99623.38;;;22.28;63.90
53635;BME280;39542;-34.932;138.594;2022-11-12T02:42:43;99617.78;;;22.28;63.68
53635;BME280;39542;-34.932;138.594;2022-11-12T02:43:17;99610.53;;;22.30;63.74
53635;BME280;39542;-34.932;138.594;2022-11-12T02:43:52;99598.58;;;22.30;63.58
53635;BME280;39542;-34.932;138.594;2022-11-12T02:44:27;99590.63;;;22.30;63.67
53635;BME280;39542;-34.932;138.594;2022-11-12T02:45:02;99593.23;;;22.33;63.52
53635;BME280;39542;-34.932;138.594;2022-11-12T02:45:36;99595.17;;;22.30;63.81
53635;BME280;39542;-34.932;138.594;2022-11-12T02:46:11;99595.96;;;22.31;63.84
53635;BME280;39542;-34.932;138.594;2022-11-12T02:46:45;99593.89;;;22.30;63.90
53635;BME280;39542;-34.932;138.594;2022-11-12T02:47:20;99598.36;;;22.29;63.80
53635;BME280;39542;-34.932;138.594;2022-11-12T02:47:55;99594.86;;;22.30;63.80
53635;BME280;39542;-34.932;138.594;2022-11-12T02:48:29;99596.84;;;22.31;63.45
53635;BME280;39542;-34.932;138.594;2022-11-12T02:49:04;99590.66;;;22.34;63.67
53635;BME280;39542;-34.932;138.594;2022-11-12T02:49:38;99586.07;;;22.36;63.65
53635;BME280;39542;-34.932;138.594;2022-11-12T02:50:13;99584.63;;;22.35;63.62
53635;BME280;39542;-34.932;138.594;2022-11-12T02:50:48;99573.05;;;22.30;63.80
53635;BME280;39542;-34.932;138.594;2022-11-12T02:51:23;99577.86;;;22.29;63.77
53635;BME280;39542;-34.932;138.594;2022-11-12T02:51:58;99575.06;;;22.31;63.85
53635;BME280;39542;-34.932;138.594;2022-11-12T02:52:33;99561.71;;;22.32;63.77
53635;BME280;39542;-34.932;138.594;2022-11-12T02:53:07;99559.55;;;22.32;63.58
53635;BME280;39542;-34.932;138.594;2022-11-12T02:53:42;99561.10;;;22.32;63.46
53635;BME280;39542;-34.932;138.594;2022-11-12T02:54:16;99558.54;;;22.28;63.80
53635;BME280;39542;-34.932;138.594;2022-11-12T02:54:50;99553.46;;;22.26;63.80
53635;BME280;39542;-34.932;138.594;2022-11-12T02:55:25;99552.65;;;22.28;63.64
53635;BME280;39542;-34.932;138.594;2022-11-12T02:55:59;99549.28;;;22.29;63.72
53635;BME280;39542;-34.932;138.594;2022-11-12T02:56:34;99548.33;;;22.27;63.71
53635;BME280;39542;-34.932;138.594;2022-11-12T02:57:08;99538.95;;;22.26;63.70
53635;BME280;39542;-34.932;138.594;2022-11-12T02:57:44;99541.01;;;22.20;63.69
53635;BME280;39542;-34.932;138.594;2022-11-12T02:58:19;99540.79;;;22.22;63.72
53635;BME280;39542;-34.932;138.594;2022-11-12T02:58:54;99534.73;;;22.27;63.61
53635;BME280;39542;-34.932;138.594;2022-11-12T02:59:28;99541.03;;;22.27;63.55
53635;BME280;39542;-34.932;138.594;2022-11-12T03:00:03;99536.15;;;22.26;63.70